createdAt,value
2019-02-20T00:00:27.523Z,23.80
2019-02-20T00:02:56.212Z,23.80
2019-02-20T00:05:24.867Z,23.80
2019-02-20T00:07:53.573Z,23.80
2019-02-20T00:10:22.252Z,23.80
2019-02-20T00:12:50.893Z,23.80
2019-02-20T00:15:19.541Z,23.80
2019-02-20T00:17:48.165Z,23.80
2019-02-20T00:20:16.865Z,23.70
2019-02-20T00:22:45.438Z,23.80
2019-02-20T00:25:14.084Z,23.80
2019-02-20T00:27:42.700Z,23.70
2019-02-20T00:30:11.877Z,23.80
2019-02-20T00:32:40.590Z,23.80
2019-02-20T00:35:09.290Z,23.70
2019-02-20T00:37:38.025Z,23.70
2019-02-20T00:40:09.564Z,23.70
2019-02-20T00:42:38.127Z,23.70
2019-02-20T00:45:14.357Z,23.70
2019-02-20T00:47:47.669Z,23.70
2019-02-20T00:50:16.374Z,23.70
2019-02-20T00:52:49.984Z,23.70
2019-02-20T00:55:16.977Z,23.80
2019-02-20T00:57:45.608Z,23.80
2019-02-20T01:00:15.892Z,23.70
2019-02-20T01:02:44.708Z,23.70
2019-02-20T01:05:13.421Z,23.80
2019-02-20T01:07:42.040Z,23.80
2019-02-20T01:10:10.899Z,23.70
2019-02-20T01:12:39.549Z,23.80
2019-02-20T01:15:10.802Z,23.70
2019-02-20T01:17:39.530Z,23.70
2019-02-20T01:20:09.834Z,23.70
2019-02-20T01:22:39.148Z,23.80
2019-02-20T01:25:08.134Z,23.80
2019-02-20T01:27:36.772Z,23.70
2019-02-20T01:30:11.118Z,23.70
2019-02-20T01:32:39.772Z,23.70
2019-02-20T01:35:08.935Z,23.70
2019-02-20T01:37:37.724Z,23.80
2019-02-20T01:40:06.953Z,23.70
2019-02-20T01:42:35.653Z,23.70
2019-02-20T01:45:04.586Z,23.70
2019-02-20T01:47:33.211Z,23.70
2019-02-20T01:50:02.004Z,23.70
2019-02-20T01:52:30.634Z,23.70
2019-02-20T01:54:59.358Z,23.70
2019-02-20T01:57:28.122Z,23.70
2019-02-20T01:59:56.709Z,23.80
2019-02-20T02:02:25.380Z,23.70
2019-02-20T02:04:54.013Z,23.80
2019-02-20T02:07:22.583Z,23.70
2019-02-20T02:09:51.301Z,23.70
2019-02-20T02:12:19.898Z,23.70
2019-02-20T02:14:48.562Z,23.70
2019-02-20T02:17:17.194Z,23.70
2019-02-20T02:19:45.855Z,23.70
2019-02-20T02:22:14.492Z,23.70
2019-02-20T02:24:43.087Z,23.70
2019-02-20T02:27:11.686Z,23.70
2019-02-20T02:29:40.278Z,23.70
2019-02-20T02:32:08.979Z,23.70
2019-02-20T02:34:37.673Z,23.60
2019-02-20T02:37:06.304Z,23.70
2019-02-20T02:39:34.961Z,23.70
2019-02-20T02:42:03.683Z,23.70
2019-02-20T02:44:32.451Z,23.70
2019-02-20T02:47:01.098Z,23.70
2019-02-20T02:49:29.688Z,23.70
2019-02-20T02:51:58.300Z,23.70
2019-02-20T02:54:26.958Z,23.70
2019-02-20T02:56:55.594Z,23.70
2019-02-20T02:59:24.215Z,23.70
2019-02-20T03:01:52.928Z,23.70
2019-02-20T03:04:21.590Z,23.70
2019-02-20T03:06:50.200Z,23.70
2019-02-20T03:09:18.901Z,23.70
2019-02-20T03:11:47.575Z,23.70
2019-02-20T03:14:16.158Z,23.70
2019-02-20T03:16:44.813Z,23.70
2019-02-20T03:19:13.400Z,23.70
2019-02-20T03:21:42.034Z,23.60
2019-02-20T03:24:10.606Z,23.60
2019-02-20T03:26:39.231Z,23.60
2019-02-20T03:29:07.934Z,23.60
2019-02-20T03:31:36.558Z,23.60
2019-02-20T03:34:08.523Z,23.60
2019-02-20T03:36:35.510Z,23.60
2019-02-20T03:39:05.173Z,23.60
2019-02-20T03:41:34.742Z,23.60
2019-02-20T03:44:03.511Z,23.60
2019-02-20T03:46:32.091Z,23.70
2019-02-20T03:49:00.671Z,23.60
2019-02-20T03:51:29.300Z,23.60
2019-02-20T03:53:58.083Z,23.60
2019-02-20T03:56:26.802Z,23.60
2019-02-20T03:58:55.520Z,23.60
2019-02-20T04:01:24.238Z,23.60
2019-02-20T04:03:52.866Z,23.60
2019-02-20T04:06:21.521Z,23.60
2019-02-20T04:08:50.180Z,23.60
2019-02-20T04:11:18.879Z,23.60
2019-02-20T04:13:47.579Z,23.60
2019-02-20T04:16:16.246Z,23.60
2019-02-20T04:18:45.008Z,23.60
2019-02-20T04:21:16.650Z,23.60
2019-02-20T04:23:45.306Z,23.60
2019-02-20T04:26:13.955Z,23.60
2019-02-20T04:28:42.672Z,23.60
2019-02-20T04:31:11.838Z,23.60
2019-02-20T04:33:40.459Z,23.60
2019-02-20T04:36:09.046Z,23.60
2019-02-20T04:38:37.763Z,23.60
2019-02-20T04:41:06.347Z,23.60
2019-02-20T04:43:34.928Z,23.60
2019-02-20T04:46:03.558Z,23.60
2019-02-20T04:48:32.135Z,23.60
2019-02-20T04:51:00.764Z,23.60
2019-02-20T04:53:29.367Z,23.60
2019-02-20T04:55:58.027Z,23.60
2019-02-20T04:58:26.693Z,23.50
2019-02-20T05:00:55.340Z,23.50
2019-02-20T05:03:23.992Z,23.50
2019-02-20T05:05:52.657Z,23.40
2019-02-20T05:08:21.340Z,23.40
2019-02-20T05:10:50.055Z,23.50
2019-02-20T05:13:18.727Z,23.40
2019-02-20T05:15:47.463Z,23.40
2019-02-20T05:18:16.129Z,23.40
2019-02-20T05:20:44.903Z,23.40
2019-02-20T05:23:13.578Z,23.40
2019-02-20T05:25:42.212Z,23.40
2019-02-20T05:28:10.956Z,23.40
2019-02-20T05:30:39.639Z,23.40
2019-02-20T05:33:08.460Z,23.40
2019-02-20T05:35:37.005Z,23.40
2019-02-20T05:38:05.748Z,23.40
2019-02-20T05:40:34.399Z,23.40
2019-02-20T05:43:03.005Z,23.40
2019-02-20T05:45:31.598Z,23.40
2019-02-20T05:48:00.271Z,23.40
2019-02-20T05:50:28.949Z,23.40
2019-02-20T05:52:57.642Z,23.40
2019-02-20T05:55:26.236Z,23.40
2019-02-20T05:57:54.928Z,23.40
2019-02-20T06:00:23.509Z,23.40
2019-02-20T06:02:52.193Z,23.40
2019-02-20T06:05:21.028Z,23.40
2019-02-20T06:07:49.857Z,23.40
2019-02-20T06:10:18.511Z,23.40
2019-02-20T06:12:47.186Z,23.40
2019-02-20T06:15:16.001Z,23.40
2019-02-20T06:17:44.707Z,23.40
2019-02-20T06:20:13.472Z,23.40
2019-02-20T06:22:44.329Z,23.40
2019-02-20T06:25:13.475Z,23.40
2019-02-20T06:27:45.137Z,23.50
2019-02-20T06:30:13.908Z,23.50
2019-02-20T06:32:42.737Z,23.50
2019-02-20T06:35:11.521Z,23.50
2019-02-20T06:37:40.148Z,23.50
2019-02-20T06:40:10.221Z,23.50
2019-02-20T06:42:38.886Z,23.50
2019-02-20T06:45:11.443Z,23.50
2019-02-20T06:47:40.125Z,23.50
2019-02-20T06:50:09.090Z,23.50
2019-02-20T06:52:37.680Z,23.50
2019-02-20T06:55:09.664Z,23.50
2019-02-20T06:57:38.387Z,23.50
2019-02-20T07:00:10.312Z,23.50
2019-02-20T07:02:39.053Z,23.50
2019-02-20T07:05:34.101Z,23.50
2019-02-20T07:08:28.316Z,23.50
2019-02-20T07:11:00.109Z,23.40
2019-02-20T07:13:34.843Z,23.40
2019-02-20T07:16:46.759Z,23.40
2019-02-20T07:19:25.115Z,23.40
2019-02-20T07:22:11.580Z,23.40
2019-02-20T07:24:48.947Z,23.50
2019-02-20T07:27:35.466Z,23.50
2019-02-20T07:30:06.583Z,23.40
2019-02-20T07:32:35.255Z,23.40
2019-02-20T07:35:04.859Z,23.40
2019-02-20T07:37:33.548Z,23.50
2019-02-20T07:40:02.155Z,23.50
2019-02-20T07:42:30.859Z,23.50
2019-02-20T07:44:59.837Z,23.50
2019-02-20T07:47:28.699Z,23.50
2019-02-20T07:49:58.192Z,23.50
2019-02-20T07:52:26.816Z,23.50
2019-02-20T07:54:55.582Z,23.50
2019-02-20T07:57:24.372Z,23.50
2019-02-20T07:59:53.190Z,23.60
2019-02-20T08:02:23.587Z,23.60
2019-02-20T08:04:52.377Z,23.60
2019-02-20T08:07:23.823Z,23.60
2019-02-20T08:09:52.412Z,23.60
2019-02-20T08:12:21.156Z,23.60
2019-02-20T08:14:49.873Z,23.60
2019-02-20T08:17:18.593Z,23.60
2019-02-20T08:19:47.466Z,23.60
2019-02-20T08:22:16.128Z,23.70
2019-02-20T08:24:44.817Z,23.70
2019-02-20T08:27:13.599Z,23.70
2019-02-20T08:29:46.311Z,23.70
2019-02-20T08:32:14.993Z,23.70
2019-02-20T08:34:43.802Z,23.70
2019-02-20T08:37:12.593Z,23.70
2019-02-20T08:39:41.212Z,23.70
2019-02-20T08:42:09.908Z,23.70
2019-02-20T08:44:38.677Z,23.70
2019-02-20T08:47:07.501Z,23.70
2019-02-20T08:49:36.205Z,23.70
2019-02-20T08:52:04.816Z,23.70
2019-02-20T08:54:33.620Z,23.70
2019-02-20T08:57:02.390Z,23.80
2019-02-20T08:59:32.261Z,23.80
2019-02-20T09:02:00.832Z,23.80
2019-02-20T09:04:33.105Z,23.80
2019-02-20T09:07:03.876Z,23.80
2019-02-20T09:09:32.495Z,23.80
2019-02-20T09:12:01.197Z,23.80
2019-02-20T09:14:31.199Z,23.80
2019-02-20T09:17:00.217Z,23.80
2019-02-20T09:19:28.818Z,23.80
2019-02-20T09:21:57.581Z,23.90
2019-02-20T09:24:26.494Z,23.90
2019-02-20T09:26:55.179Z,23.90
2019-02-20T09:29:24.003Z,23.90
2019-02-20T09:31:52.752Z,23.90
2019-02-20T09:34:21.449Z,23.90
2019-02-20T09:36:50.263Z,23.90
2019-02-20T09:39:30.072Z,23.90
2019-02-20T09:41:58.692Z,23.90
2019-02-20T09:44:28.157Z,23.90
2019-02-20T09:46:56.847Z,23.90
2019-02-20T09:49:25.508Z,23.90
2019-02-20T09:51:54.258Z,24.00
2019-02-20T09:54:22.903Z,24.00
2019-02-20T09:56:52.294Z,24.00
2019-02-20T09:59:21.034Z,24.00
2019-02-20T10:01:52.058Z,24.00
2019-02-20T10:04:20.667Z,24.00
2019-02-20T10:06:49.458Z,24.10
2019-02-20T10:09:18.172Z,24.20
2019-02-20T10:11:46.982Z,24.20
2019-02-20T10:14:15.740Z,24.20
2019-02-20T10:16:46.095Z,24.20
2019-02-20T10:19:14.742Z,24.20
2019-02-20T10:21:43.491Z,24.20
2019-02-20T10:24:12.314Z,24.20
2019-02-20T10:26:41.497Z,24.20
2019-02-20T10:29:10.213Z,24.20
2019-02-20T10:31:38.792Z,24.20
2019-02-20T10:34:07.569Z,24.20
2019-02-20T10:36:36.255Z,24.20
2019-02-20T10:39:05.587Z,24.20
2019-02-20T10:41:34.311Z,24.20
2019-02-20T10:44:03.096Z,24.20
2019-02-20T10:46:31.787Z,24.10
2019-02-20T10:49:00.498Z,24.10
2019-02-20T10:51:29.206Z,24.10
2019-02-20T10:53:57.773Z,24.20
2019-02-20T10:56:26.359Z,24.20
2019-02-20T10:58:55.007Z,24.10
2019-02-20T11:01:23.671Z,24.20
2019-02-20T11:03:52.485Z,24.20
2019-02-20T11:06:21.177Z,24.20
2019-02-20T11:08:50.556Z,24.20
2019-02-20T11:11:19.354Z,24.20
2019-02-20T11:13:48.025Z,24.20
2019-02-20T11:16:16.755Z,24.20
2019-02-20T11:18:45.502Z,24.20
2019-02-20T11:21:14.342Z,24.20
2019-02-20T11:23:43.145Z,24.20
2019-02-20T11:26:18.189Z,24.20
2019-02-20T11:28:45.161Z,24.20
2019-02-20T11:31:13.982Z,24.20
2019-02-20T11:33:42.684Z,24.20
2019-02-20T11:36:11.428Z,24.30
2019-02-20T11:38:42.836Z,24.20
2019-02-20T11:41:13.868Z,24.20
2019-02-20T11:43:42.661Z,24.30
2019-02-20T11:46:11.357Z,24.30
2019-02-20T11:48:40.177Z,24.30
2019-02-20T11:51:08.885Z,24.30
2019-02-20T11:53:37.570Z,24.30
2019-02-20T11:56:06.478Z,24.30
2019-02-20T11:58:36.705Z,24.30
2019-02-20T12:01:05.788Z,24.30
2019-02-20T12:03:34.578Z,24.30
2019-02-20T12:06:03.314Z,24.30
2019-02-20T12:08:32.009Z,24.40
2019-02-20T12:11:00.819Z,24.40
2019-02-20T12:13:29.643Z,24.40
2019-02-20T12:15:58.508Z,24.40
2019-02-20T12:18:28.909Z,24.40
2019-02-20T12:20:57.614Z,24.40
2019-02-20T12:23:26.363Z,24.40
2019-02-20T12:25:56.642Z,24.40
2019-02-20T12:28:25.408Z,24.40
2019-02-20T12:30:55.863Z,24.40
2019-02-20T12:33:24.551Z,24.50
2019-02-20T12:35:53.402Z,24.40
2019-02-20T12:38:22.427Z,24.50
2019-02-20T12:40:51.232Z,24.50
2019-02-20T12:43:19.993Z,24.40
2019-02-20T12:45:49.056Z,24.40
2019-02-20T12:48:17.885Z,24.50
2019-02-20T12:50:46.752Z,24.50
2019-02-20T12:53:15.568Z,24.50
2019-02-20T12:55:44.324Z,24.50
2019-02-20T12:58:13.162Z,24.50
2019-02-20T13:00:43.700Z,24.50
2019-02-20T13:03:12.620Z,24.50
2019-02-20T13:05:42.508Z,24.50
2019-02-20T13:08:12.149Z,24.50
2019-02-20T13:10:41.042Z,24.50
2019-02-20T13:13:09.923Z,24.50
2019-02-20T13:15:38.954Z,24.50
2019-02-20T13:18:07.627Z,24.50
2019-02-20T13:20:36.430Z,24.50
2019-02-20T13:23:05.446Z,24.50
2019-02-20T13:25:34.189Z,24.50
2019-02-20T13:28:02.950Z,24.50
2019-02-20T13:30:31.877Z,24.50
2019-02-20T13:33:02.485Z,24.50
2019-02-20T13:35:31.042Z,24.40
2019-02-20T13:37:59.785Z,24.40
2019-02-20T13:40:28.539Z,24.40
2019-02-20T13:42:57.297Z,24.40
2019-02-20T13:45:26.065Z,24.40
2019-02-20T13:47:54.986Z,24.40
2019-02-20T13:50:24.256Z,24.40
2019-02-20T13:52:53.080Z,24.50
2019-02-20T13:55:21.868Z,24.50
2019-02-20T13:57:50.530Z,24.50
2019-02-20T14:00:19.342Z,24.50
2019-02-20T14:02:48.026Z,24.50
2019-02-20T14:05:16.732Z,24.50
2019-02-20T14:07:45.541Z,24.50
2019-02-20T14:10:15.048Z,24.50
2019-02-20T14:12:46.762Z,24.40
2019-02-20T14:15:17.501Z,24.50
2019-02-20T14:17:47.227Z,24.50
2019-02-20T14:20:16.022Z,24.40
2019-02-20T14:22:45.852Z,24.40
2019-02-20T14:25:16.099Z,24.40
2019-02-20T14:27:46.097Z,24.40
2019-02-20T14:30:15.067Z,24.40
2019-02-20T14:32:43.876Z,24.50
2019-02-20T14:35:15.125Z,24.50
2019-02-20T14:37:43.811Z,24.50
2019-02-20T14:40:12.593Z,24.50
2019-02-20T14:42:41.283Z,24.50
2019-02-20T14:45:15.722Z,24.50
2019-02-20T14:47:44.512Z,24.50
2019-02-20T14:50:13.510Z,24.50
2019-02-20T14:52:42.345Z,24.50
2019-02-20T14:55:11.734Z,24.50
2019-02-20T14:57:40.454Z,24.50
2019-02-20T15:00:13.202Z,24.50
2019-02-20T15:02:41.990Z,24.50
2019-02-20T15:05:12.062Z,24.50
2019-02-20T15:07:41.073Z,24.50
2019-02-20T15:10:10.584Z,24.50
2019-02-20T15:12:39.332Z,24.50
2019-02-20T15:15:11.018Z,24.50
2019-02-20T15:17:39.912Z,24.40
2019-02-20T15:20:11.143Z,24.40
2019-02-20T15:22:40.057Z,24.40
2019-02-20T15:25:09.792Z,24.40
2019-02-20T15:27:38.578Z,24.40
2019-02-20T15:30:10.191Z,24.40
2019-02-20T15:32:39.645Z,24.40
2019-02-20T15:35:08.578Z,24.40
2019-02-20T15:37:37.483Z,24.40
2019-02-20T15:40:08.609Z,24.40
2019-02-20T15:42:37.386Z,24.40
2019-02-20T15:45:08.630Z,24.40
2019-02-20T15:47:37.475Z,24.40
2019-02-20T15:50:14.771Z,24.40
2019-02-20T15:52:43.538Z,24.40
2019-02-20T15:55:12.419Z,24.40
2019-02-20T15:57:41.156Z,24.40
2019-02-20T16:00:12.855Z,24.40
2019-02-20T16:02:41.516Z,24.40
2019-02-20T16:05:10.373Z,24.40
2019-02-20T16:07:39.210Z,24.40
2019-02-20T16:10:09.909Z,24.40
2019-02-20T16:12:38.691Z,24.40
2019-02-20T16:15:10.293Z,24.40
2019-02-20T16:17:39.143Z,24.40
2019-02-20T16:20:10.904Z,24.30
2019-02-20T16:22:39.767Z,24.30
2019-02-20T16:25:11.711Z,24.40
2019-02-20T16:27:46.760Z,24.40
2019-02-20T16:30:13.460Z,24.40
2019-02-20T16:32:42.258Z,24.40
2019-02-20T16:35:12.672Z,24.40
2019-02-20T16:37:41.445Z,24.40
2019-02-20T16:40:13.352Z,24.40
2019-02-20T16:42:42.217Z,24.40
2019-02-20T16:45:22.218Z,24.40
2019-02-20T16:47:51.561Z,24.40
2019-02-20T16:50:20.445Z,24.40
2019-02-20T16:52:49.394Z,24.40
2019-02-20T16:55:19.741Z,24.30
2019-02-20T16:57:56.209Z,24.40
2019-02-20T17:00:21.812Z,24.40
2019-02-20T17:02:51.144Z,24.30
2019-02-20T17:05:20.871Z,24.30
2019-02-20T17:07:49.682Z,24.30
2019-02-20T17:10:18.464Z,24.30
2019-02-20T17:12:47.264Z,24.30
2019-02-20T17:15:17.239Z,24.30
2019-02-20T17:17:46.388Z,24.30
2019-02-20T17:20:17.786Z,24.30
2019-02-20T17:22:48.393Z,24.30
2019-02-20T17:25:17.358Z,24.30
2019-02-20T17:27:46.205Z,24.30
2019-02-20T17:30:19.408Z,24.30
2019-02-20T17:32:48.640Z,24.30
2019-02-20T17:38:10.501Z,24.20
2019-02-20T17:40:39.218Z,24.30
2019-02-20T17:43:08.260Z,24.20
2019-02-20T17:45:37.082Z,24.20
2019-02-20T17:48:06.498Z,24.20
2019-02-20T17:50:36.529Z,24.20
2019-02-20T17:53:05.449Z,24.30
2019-02-20T17:55:34.370Z,24.30
2019-02-20T17:58:03.911Z,24.30
2019-02-20T18:00:32.704Z,24.20
2019-02-20T18:03:01.627Z,24.20
2019-02-20T18:05:32.297Z,24.30
2019-02-20T18:08:01.027Z,24.30
2019-02-20T18:10:30.057Z,24.30
2019-02-20T18:12:58.719Z,24.30
2019-02-20T18:15:27.428Z,24.30
2019-02-20T18:17:56.129Z,24.30
2019-02-20T18:20:25.217Z,24.30
2019-02-20T18:22:54.078Z,24.30
2019-02-20T18:25:22.811Z,24.30
2019-02-20T18:27:53.191Z,24.30
2019-02-20T18:30:21.844Z,24.20
2019-02-20T18:32:50.689Z,24.20
2019-02-20T18:35:24.032Z,24.20
2019-02-20T18:37:52.861Z,24.20
2019-02-20T18:40:23.129Z,24.20
2019-02-20T18:42:51.995Z,24.20
2019-02-20T18:45:20.751Z,24.20
2019-02-20T18:47:49.473Z,24.20
2019-02-20T18:50:18.215Z,24.20
2019-02-20T18:52:49.215Z,24.20
2019-02-20T18:55:18.079Z,24.20
2019-02-20T18:57:46.874Z,24.20
2019-02-20T19:00:18.242Z,24.20
2019-02-20T19:02:47.903Z,24.20
2019-02-20T19:05:18.646Z,24.20
2019-02-20T19:07:47.118Z,24.20
2019-02-20T19:10:21.905Z,24.20
2019-02-20T19:13:28.265Z,24.20
2019-02-20T19:16:02.584Z,24.10
2019-02-20T19:18:59.987Z,24.10
2019-02-20T19:21:43.615Z,24.20
2019-02-20T19:24:33.291Z,24.20
2019-02-20T19:27:21.627Z,24.10
2019-02-20T19:30:05.199Z,24.10
2019-02-20T19:32:51.821Z,24.10
2019-02-20T19:35:35.422Z,24.10
2019-02-20T19:38:09.755Z,24.10
2019-02-20T19:41:01.499Z,24.10
2019-02-20T19:43:48.030Z,24.10
2019-02-20T19:46:46.948Z,24.10
2019-02-20T19:49:41.302Z,24.10
2019-02-20T19:52:15.834Z,24.10
2019-02-20T19:54:50.383Z,24.10
2019-02-20T19:57:34.172Z,24.10
2019-02-20T20:00:42.455Z,24.10
2019-02-20T20:03:19.460Z,24.00
2019-02-20T20:05:53.887Z,24.00
2019-02-20T20:08:37.256Z,24.00
2019-02-20T20:11:11.666Z,24.00
2019-02-20T20:13:54.861Z,24.00
2019-02-20T20:16:41.563Z,24.00
2019-02-20T20:19:25.122Z,24.00
2019-02-20T20:22:02.480Z,24.00
2019-02-20T20:24:48.887Z,24.00
2019-02-20T20:27:26.998Z,24.00
2019-02-20T20:30:31.591Z,24.00
2019-02-20T20:33:36.511Z,24.00
2019-02-20T20:36:27.889Z,24.00
2019-02-20T20:39:11.694Z,24.00
2019-02-20T20:41:59.782Z,24.00
